SWA1873 KMCO-TNCM
Flight info
| Callsign | SWA1873 |
|---|---|
| Flight time | 2h 36m |
| Altitude | 39000 |
| Route | DDANY3 JIPOD DCT VENDS Y185 COUKY DCT FIPEK Y355 SLUGO |
| Aircraft | B737/M-SDE2E3FGHIRWXY/LB1 |
Departure
| Time | 2026-05-06 19:46 |
|---|---|
| Airport | Orlando International Airport (KMCO) |
Arrival
| Time | 2026-05-06 22:22 |
|---|---|
| Airport | Princess Juliana International Airport (TNCM) |
| Time | Latitude | Longitude | Altitude | Speed | Heading |
|---|---|---|---|---|---|
| 2026-05-06 19:18 | 28.43473 | -81.30017 | 100 ft | 0 kts | 269° |
| 2026-05-06 19:39 | 28.43473 | -81.30001 | 100 ft | 3 kts | 269° |
| 2026-05-06 19:40 | 28.43474 | -81.29980 | 100 ft | 3 kts | 269° |
| 2026-05-06 19:40 | 28.43474 | -81.29958 | 100 ft | 3 kts | 269° |
| 2026-05-06 19:40 | 28.43474 | -81.29950 | 100 ft | 0 kts | 269° |
| 2026-05-06 19:43 | 28.43486 | -81.29948 | 98 ft | 6 kts | 30° |
| 2026-05-06 19:44 | 28.43547 | -81.29851 | 102 ft | 20 kts | 82° |
| 2026-05-06 19:44 | 28.43550 | -81.29720 | 102 ft | 11 kts | 92° |
| 2026-05-06 19:44 | 28.43549 | -81.29706 | 102 ft | 0 kts | 92° |
| 2026-05-06 19:44 | 28.43549 | -81.29703 | 102 ft | 3 kts | 92° |
| 2026-05-06 19:45 | 28.43552 | -81.29617 | 103 ft | 14 kts | 88° |
| 2026-05-06 19:45 | 28.43522 | -81.29588 | 104 ft | 12 kts | 175° |
| 2026-05-06 19:45 | 28.43235 | -81.29582 | 106 ft | 83 kts | 178° |
| 2026-05-06 19:45 | 28.42381 | -81.29571 | 102 ft | 159 kts | 179° |
| 2026-05-06 19:46 | 28.41139 | -81.29578 | 524 ft | 193 kts | 178° |
| 2026-05-06 19:46 | 28.39687 | -81.29570 | 1173 ft | 218 kts | 174° |
| 2026-05-06 19:46 | 28.38255 | -81.28975 | 2028 ft | 227 kts | 148° |
| 2026-05-06 19:46 | 28.36808 | -81.28017 | 2548 ft | 256 kts | 154° |
| 2026-05-06 19:47 | 28.35162 | -81.27177 | 3544 ft | 260 kts | 158° |
| 2026-05-06 19:47 | 28.33601 | -81.26149 | 4604 ft | 265 kts | 135° |
| 2026-05-06 19:47 | 28.32439 | -81.24552 | 5673 ft | 269 kts | 128° |
| 2026-05-06 19:47 | 28.31253 | -81.22856 | 6478 ft | 279 kts | 128° |
| 2026-05-06 19:48 | 28.30035 | -81.21135 | 6842 ft | 279 kts | 128° |
| 2026-05-06 19:48 | 28.28765 | -81.19435 | 6975 ft | 285 kts | 135° |
| 2026-05-06 19:48 | 28.27269 | -81.17909 | 7383 ft | 293 kts | 137° |
| 2026-05-06 19:48 | 28.25749 | -81.16402 | 8484 ft | 289 kts | 138° |
| 2026-05-06 19:49 | 28.24375 | -81.14732 | 9372 ft | 293 kts | 123° |
| 2026-05-06 19:49 | 28.23302 | -81.12745 | 10248 ft | 299 kts | 119° |
| 2026-05-06 19:49 | 28.22213 | -81.10641 | 10611 ft | 323 kts | 118° |
| 2026-05-06 19:49 | 28.21407 | -81.08210 | 11093 ft | 335 kts | 101° |
| 2026-05-06 19:50 | 28.21139 | -81.05577 | 11857 ft | 339 kts | 90° |
| 2026-05-06 19:50 | 28.21120 | -81.02893 | 12689 ft | 342 kts | 87° |
| 2026-05-06 19:50 | 28.21150 | -81.00179 | 13474 ft | 347 kts | 86° |
| 2026-05-06 19:50 | 28.21183 | -80.97461 | 14188 ft | 352 kts | 86° |
| 2026-05-06 19:51 | 28.21200 | -80.94665 | 14836 ft | 358 kts | 89° |
| 2026-05-06 19:51 | 28.20907 | -80.91826 | 15483 ft | 367 kts | 98° |
| 2026-05-06 19:51 | 28.20384 | -80.88974 | 16154 ft | 372 kts | 100° |
| 2026-05-06 19:51 | 28.19810 | -80.86093 | 16787 ft | 376 kts | 101° |
| 2026-05-06 19:52 | 28.18973 | -80.83296 | 16888 ft | 380 kts | 116° |
| 2026-05-06 19:52 | 28.17573 | -80.80733 | 16976 ft | 387 kts | 112° |
| 2026-05-06 19:52 | 28.16973 | -80.77780 | 17792 ft | 385 kts | 92° |
| 2026-05-06 19:52 | 28.16816 | -80.74740 | 18447 ft | 390 kts | 91° |
| 2026-05-06 19:53 | 28.16596 | -80.71644 | 18939 ft | 398 kts | 93° |
| 2026-05-06 19:53 | 28.16243 | -80.68515 | 19497 ft | 403 kts | 96° |
| 2026-05-06 19:53 | 28.15775 | -80.65360 | 20068 ft | 408 kts | 98° |
| 2026-05-06 19:53 | 28.15229 | -80.62192 | 20614 ft | 413 kts | 99° |
| 2026-05-06 19:54 | 28.14634 | -80.58978 | 21167 ft | 418 kts | 99° |
| 2026-05-06 19:54 | 28.14016 | -80.55735 | 21713 ft | 423 kts | 99° |
| 2026-05-06 19:54 | 28.13387 | -80.52458 | 22241 ft | 428 kts | 99° |
| 2026-05-06 19:54 | 28.12758 | -80.49180 | 22759 ft | 433 kts | 99° |
| 2026-05-06 19:55 | 28.12119 | -80.45832 | 23277 ft | 437 kts | 99° |
| 2026-05-06 19:55 | 28.11473 | -80.42444 | 23754 ft | 442 kts | 99° |
| 2026-05-06 19:55 | 28.10822 | -80.39024 | 24178 ft | 446 kts | 99° |
| 2026-05-06 19:55 | 28.10165 | -80.35581 | 24629 ft | 449 kts | 99° |
| 2026-05-06 19:56 | 28.09478 | -80.32117 | 25076 ft | 453 kts | 102° |
| 2026-05-06 19:56 | 28.08505 | -80.28704 | 25509 ft | 458 kts | 108° |
| 2026-05-06 19:56 | 28.07380 | -80.25301 | 25952 ft | 461 kts | 109° |
| 2026-05-06 19:56 | 28.06207 | -80.21905 | 26381 ft | 465 kts | 110° |
| 2026-05-06 19:57 | 28.05015 | -80.18487 | 26818 ft | 469 kts | 110° |
| 2026-05-06 19:57 | 28.03819 | -80.15038 | 27219 ft | 472 kts | 110° |
| 2026-05-06 19:57 | 28.02626 | -80.11560 | 27632 ft | 475 kts | 110° |
| 2026-05-06 19:57 | 28.01436 | -80.08063 | 28043 ft | 479 kts | 109° |
| 2026-05-06 19:58 | 28.00242 | -80.04532 | 28442 ft | 482 kts | 109° |
| 2026-05-06 19:58 | 27.99042 | -80.00974 | 28841 ft | 485 kts | 109° |
| 2026-05-06 19:58 | 27.97837 | -79.97395 | 29159 ft | 488 kts | 109° |
| 2026-05-06 19:58 | 27.96638 | -79.93839 | 29434 ft | 492 kts | 109° |
| 2026-05-06 19:59 | 27.95403 | -79.90179 | 29697 ft | 492 kts | 109° |
| 2026-05-06 19:59 | 27.94195 | -79.86607 | 29891 ft | 494 kts | 109° |
| 2026-05-06 19:59 | 27.92966 | -79.82974 | 30075 ft | 496 kts | 109° |
| 2026-05-06 19:59 | 27.91731 | -79.79330 | 30238 ft | 497 kts | 109° |
| 2026-05-06 20:00 | 27.90490 | -79.75672 | 30406 ft | 498 kts | 110° |
| 2026-05-06 20:00 | 27.89245 | -79.72007 | 30577 ft | 499 kts | 110° |
| 2026-05-06 20:00 | 27.87999 | -79.68344 | 30766 ft | 499 kts | 110° |
| 2026-05-06 20:00 | 27.86753 | -79.64683 | 31021 ft | 498 kts | 110° |
| 2026-05-06 20:01 | 27.85509 | -79.61034 | 31295 ft | 496 kts | 109° |
| 2026-05-06 20:01 | 27.84270 | -79.57401 | 31569 ft | 495 kts | 110° |
| 2026-05-06 20:01 | 27.83033 | -79.53777 | 31813 ft | 494 kts | 110° |
| 2026-05-06 20:01 | 27.81796 | -79.50154 | 32022 ft | 495 kts | 110° |
| 2026-05-06 20:02 | 27.80551 | -79.46514 | 32331 ft | 497 kts | 110° |
| 2026-05-06 20:02 | 27.79308 | -79.42881 | 32801 ft | 496 kts | 110° |
| 2026-05-06 20:02 | 27.78064 | -79.39254 | 33292 ft | 493 kts | 110° |
| 2026-05-06 20:02 | 27.76828 | -79.35651 | 33769 ft | 491 kts | 110° |
| 2026-05-06 20:03 | 27.75594 | -79.32056 | 34167 ft | 491 kts | 110° |
| 2026-05-06 20:03 | 27.74358 | -79.28461 | 34477 ft | 491 kts | 110° |
| 2026-05-06 20:03 | 27.73122 | -79.24866 | 34785 ft | 491 kts | 110° |
| 2026-05-06 20:03 | 27.71885 | -79.21274 | 35128 ft | 490 kts | 110° |
| 2026-05-06 20:04 | 27.70650 | -79.17693 | 35460 ft | 489 kts | 110° |
| 2026-05-06 20:04 | 27.69430 | -79.14157 | 35729 ft | 490 kts | 110° |
| 2026-05-06 20:04 | 27.68190 | -79.10564 | 36008 ft | 490 kts | 110° |
| 2026-05-06 20:04 | 27.66947 | -79.06970 | 36300 ft | 490 kts | 110° |
| 2026-05-06 20:05 | 27.65710 | -79.03396 | 36606 ft | 489 kts | 110° |
| 2026-05-06 20:05 | 27.64472 | -78.99821 | 36893 ft | 489 kts | 110° |
| 2026-05-06 20:05 | 27.63235 | -78.96253 | 37111 ft | 490 kts | 110° |
| 2026-05-06 20:05 | 27.61988 | -78.92659 | 37070 ft | 494 kts | 110° |
| 2026-05-06 20:06 | 27.59457 | -78.85373 | 37094 ft | 501 kts | 110° |
| 2026-05-06 20:06 | 27.56924 | -78.78100 | 37088 ft | 502 kts | 110° |
| 2026-05-06 20:07 | 27.54364 | -78.70767 | 37098 ft | 504 kts | 110° |
| 2026-05-06 20:07 | 27.53072 | -78.67068 | 37219 ft | 507 kts | 110° |
| 2026-05-06 20:07 | 27.51782 | -78.63380 | 37505 ft | 506 kts | 110° |
| 2026-05-06 20:08 | 27.50492 | -78.59698 | 37826 ft | 504 kts | 110° |
| 2026-05-06 20:08 | 27.49207 | -78.56031 | 38131 ft | 502 kts | 110° |
| 2026-05-06 20:08 | 27.47922 | -78.52370 | 38376 ft | 502 kts | 110° |
| 2026-05-06 20:08 | 27.46636 | -78.48707 | 38575 ft | 503 kts | 110° |
| 2026-05-06 20:09 | 27.45351 | -78.45049 | 38773 ft | 503 kts | 110° |
| 2026-05-06 20:09 | 27.44063 | -78.41387 | 38987 ft | 502 kts | 110° |
| 2026-05-06 20:09 | 27.41486 | -78.34072 | 39069 ft | 504 kts | 110° |
| 2026-05-06 20:10 | 27.38906 | -78.26764 | 39073 ft | 501 kts | 110° |
| 2026-05-06 20:10 | 27.36331 | -78.19481 | 39078 ft | 499 kts | 110° |
| 2026-05-06 20:11 | 27.33655 | -78.12296 | 39069 ft | 498 kts | 117° |
| 2026-05-06 20:11 | 27.29966 | -78.05768 | 39075 ft | 497 kts | 124° |
| 2026-05-06 20:12 | 27.26067 | -77.99355 | 39083 ft | 497 kts | 124° |
| 2026-05-06 20:12 | 27.22202 | -77.92914 | 39082 ft | 497 kts | 123° |
| 2026-05-06 20:13 | 27.18367 | -77.86437 | 39079 ft | 499 kts | 123° |
| 2026-05-06 20:13 | 27.14525 | -77.79939 | 39077 ft | 500 kts | 123° |
| 2026-05-06 20:14 | 27.10662 | -77.73420 | 39077 ft | 502 kts | 123° |
| 2026-05-06 20:14 | 27.06781 | -77.66887 | 39080 ft | 503 kts | 123° |
| 2026-05-06 20:15 | 27.02894 | -77.60351 | 39076 ft | 504 kts | 123° |
| 2026-05-06 20:15 | 26.99034 | -77.53844 | 39074 ft | 504 kts | 122° |
| 2026-05-06 20:16 | 26.95200 | -77.47264 | 39075 ft | 504 kts | 122° |
| 2026-05-06 20:16 | 26.91375 | -77.40678 | 39073 ft | 504 kts | 122° |
| 2026-05-06 20:17 | 26.87548 | -77.34110 | 39069 ft | 503 kts | 122° |
| 2026-05-06 20:17 | 26.83720 | -77.27564 | 39068 ft | 502 kts | 122° |
| 2026-05-06 20:18 | 26.79893 | -77.21032 | 39073 ft | 501 kts | 122° |
| 2026-05-06 20:18 | 26.76071 | -77.14518 | 39070 ft | 500 kts | 122° |
| 2026-05-06 20:19 | 26.72254 | -77.08021 | 39069 ft | 499 kts | 122° |
| 2026-05-06 20:19 | 26.68434 | -77.01528 | 39068 ft | 499 kts | 122° |
| 2026-05-06 20:20 | 26.64618 | -76.95050 | 39069 ft | 499 kts | 122° |
| 2026-05-06 20:20 | 26.61445 | -76.89672 | 39070 ft | 498 kts | 122° |
| 2026-05-06 20:21 | 26.57006 | -76.82158 | 39070 ft | 498 kts | 122° |
| 2026-05-06 20:21 | 26.53805 | -76.76747 | 39070 ft | 499 kts | 122° |
| 2026-05-06 20:22 | 26.49974 | -76.70280 | 39069 ft | 499 kts | 122° |
| 2026-05-06 20:22 | 26.46165 | -76.63860 | 39068 ft | 499 kts | 122° |
| 2026-05-06 20:23 | 26.42328 | -76.57402 | 39069 ft | 500 kts | 122° |
| 2026-05-06 20:23 | 26.38486 | -76.50944 | 39068 ft | 500 kts | 122° |
| 2026-05-06 20:24 | 26.34636 | -76.44481 | 39070 ft | 500 kts | 122° |
| 2026-05-06 20:24 | 26.30777 | -76.38014 | 39069 ft | 500 kts | 122° |
| 2026-05-06 20:25 | 26.26915 | -76.31550 | 39066 ft | 501 kts | 122° |
| 2026-05-06 20:25 | 26.23050 | -76.25091 | 39067 ft | 501 kts | 121° |
| 2026-05-06 20:26 | 26.19210 | -76.18681 | 39070 ft | 501 kts | 121° |
| 2026-05-06 20:26 | 26.15339 | -76.12231 | 39068 ft | 501 kts | 121° |
| 2026-05-06 20:27 | 26.11465 | -76.05783 | 39070 ft | 501 kts | 121° |
| 2026-05-06 20:27 | 26.07589 | -75.99340 | 39070 ft | 501 kts | 121° |
| 2026-05-06 20:28 | 26.03709 | -75.92901 | 39066 ft | 501 kts | 121° |
| 2026-05-06 20:28 | 25.99827 | -75.86468 | 39072 ft | 501 kts | 121° |
| 2026-05-06 20:29 | 25.95943 | -75.80040 | 39070 ft | 501 kts | 121° |
| 2026-05-06 20:29 | 25.92054 | -75.73611 | 39069 ft | 501 kts | 121° |
| 2026-05-06 20:30 | 25.86214 | -75.63977 | 39073 ft | 501 kts | 121° |
| 2026-05-06 20:31 | 25.82343 | -75.57601 | 39070 ft | 501 kts | 121° |
| 2026-05-06 20:31 | 25.78445 | -75.51189 | 39074 ft | 501 kts | 121° |
| 2026-05-06 20:32 | 25.74540 | -75.44776 | 39073 ft | 501 kts | 121° |
| 2026-05-06 20:32 | 25.70635 | -75.38371 | 39072 ft | 501 kts | 121° |
| 2026-05-06 20:33 | 25.66728 | -75.31972 | 39073 ft | 501 kts | 121° |
| 2026-05-06 20:33 | 25.62816 | -75.25572 | 39076 ft | 501 kts | 121° |
| 2026-05-06 20:34 | 25.58930 | -75.19225 | 39071 ft | 501 kts | 121° |
| 2026-05-06 20:34 | 25.55011 | -75.12832 | 39076 ft | 501 kts | 121° |
| 2026-05-06 20:35 | 25.51091 | -75.06445 | 39073 ft | 501 kts | 121° |
| 2026-05-06 20:35 | 25.47169 | -75.00065 | 39075 ft | 501 kts | 121° |
| 2026-05-06 20:36 | 25.43248 | -74.93694 | 39073 ft | 501 kts | 121° |
| 2026-05-06 20:36 | 25.39322 | -74.87326 | 39074 ft | 501 kts | 121° |
| 2026-05-06 20:37 | 25.35415 | -74.80994 | 39073 ft | 501 kts | 121° |
| 2026-05-06 20:37 | 25.31483 | -74.74633 | 39073 ft | 501 kts | 121° |
| 2026-05-06 20:38 | 25.27552 | -74.68280 | 39076 ft | 501 kts | 121° |
| 2026-05-06 20:38 | 25.23620 | -74.61935 | 39074 ft | 500 kts | 121° |
| 2026-05-06 20:39 | 25.19678 | -74.55582 | 39078 ft | 500 kts | 121° |
| 2026-05-06 20:39 | 25.15740 | -74.49244 | 39074 ft | 500 kts | 121° |
| 2026-05-06 20:40 | 25.11800 | -74.42910 | 39074 ft | 500 kts | 121° |
| 2026-05-06 20:40 | 25.07863 | -74.36591 | 39076 ft | 500 kts | 121° |
| 2026-05-06 20:41 | 25.03947 | -74.30313 | 39078 ft | 500 kts | 121° |
| 2026-05-06 20:41 | 25.00006 | -74.24004 | 39075 ft | 499 kts | 121° |
| 2026-05-06 20:42 | 24.96064 | -74.17701 | 39076 ft | 499 kts | 120° |
| 2026-05-06 20:42 | 24.92121 | -74.11404 | 39074 ft | 499 kts | 120° |
| 2026-05-06 20:43 | 24.88176 | -74.05112 | 39075 ft | 499 kts | 120° |
| 2026-05-06 20:43 | 24.84227 | -73.98824 | 39074 ft | 499 kts | 120° |
| 2026-05-06 20:44 | 24.80271 | -73.92532 | 39077 ft | 499 kts | 120° |
| 2026-05-06 20:44 | 24.76345 | -73.86294 | 39077 ft | 499 kts | 120° |
| 2026-05-06 20:45 | 24.72390 | -73.80020 | 39073 ft | 499 kts | 120° |
| 2026-05-06 20:45 | 24.68437 | -73.73756 | 39075 ft | 498 kts | 120° |
| 2026-05-06 20:46 | 24.64484 | -73.67500 | 39073 ft | 498 kts | 120° |
| 2026-05-06 20:46 | 24.60527 | -73.61244 | 39075 ft | 498 kts | 120° |
| 2026-05-06 20:47 | 24.56572 | -73.55001 | 39077 ft | 498 kts | 121° |
| 2026-05-06 20:47 | 24.52513 | -73.48822 | 39076 ft | 499 kts | 122° |
| 2026-05-06 20:48 | 24.48381 | -73.42692 | 39075 ft | 499 kts | 122° |
| 2026-05-06 20:48 | 24.44259 | -73.36572 | 39073 ft | 499 kts | 122° |
| 2026-05-06 20:49 | 24.40146 | -73.30438 | 39075 ft | 498 kts | 122° |
| 2026-05-06 20:49 | 24.36070 | -73.24355 | 39072 ft | 498 kts | 122° |
| 2026-05-06 20:50 | 24.31966 | -73.18235 | 39075 ft | 498 kts | 122° |
| 2026-05-06 20:50 | 24.27859 | -73.12121 | 39071 ft | 498 kts | 122° |
| 2026-05-06 20:51 | 24.23752 | -73.06016 | 39075 ft | 497 kts | 122° |
| 2026-05-06 20:51 | 24.19644 | -72.99916 | 39075 ft | 497 kts | 122° |
| 2026-05-06 20:52 | 24.15538 | -72.93828 | 39074 ft | 497 kts | 122° |
| 2026-05-06 20:52 | 24.11429 | -72.87742 | 39071 ft | 497 kts | 122° |
| 2026-05-06 20:53 | 24.07320 | -72.81664 | 39074 ft | 496 kts | 122° |
| 2026-05-06 20:53 | 24.03213 | -72.75596 | 39073 ft | 496 kts | 122° |
| 2026-05-06 20:54 | 23.99129 | -72.69569 | 39071 ft | 496 kts | 122° |
| 2026-05-06 20:54 | 23.95017 | -72.63509 | 39079 ft | 496 kts | 122° |
| 2026-05-06 20:55 | 23.90909 | -72.57461 | 39078 ft | 495 kts | 122° |
| 2026-05-06 20:55 | 23.86800 | -72.51418 | 39074 ft | 495 kts | 122° |
| 2026-05-06 20:56 | 23.82690 | -72.45383 | 39073 ft | 495 kts | 122° |
| 2026-05-06 20:56 | 23.78575 | -72.39348 | 39070 ft | 495 kts | 122° |
| 2026-05-06 20:57 | 23.74488 | -72.33360 | 39075 ft | 495 kts | 121° |
| 2026-05-06 20:57 | 23.70371 | -72.27335 | 39071 ft | 494 kts | 121° |
| 2026-05-06 20:58 | 23.66253 | -72.21317 | 39072 ft | 494 kts | 121° |
| 2026-05-06 20:58 | 23.62140 | -72.15312 | 39076 ft | 494 kts | 121° |
| 2026-05-06 20:59 | 23.58040 | -72.09334 | 39077 ft | 494 kts | 121° |
| 2026-05-06 20:59 | 23.53924 | -72.03340 | 39074 ft | 494 kts | 121° |
| 2026-05-06 21:00 | 23.49803 | -71.97344 | 39076 ft | 494 kts | 122° |
| 2026-05-06 21:00 | 23.45684 | -71.91359 | 39079 ft | 494 kts | 121° |
| 2026-05-06 21:01 | 23.41564 | -71.85379 | 39076 ft | 493 kts | 121° |
| 2026-05-06 21:01 | 23.37440 | -71.79398 | 39071 ft | 493 kts | 122° |
| 2026-05-06 21:02 | 23.33393 | -71.73375 | 39071 ft | 491 kts | 119° |
| 2026-05-06 21:02 | 23.29551 | -71.67290 | 39083 ft | 491 kts | 118° |
| 2026-05-06 21:03 | 23.25703 | -71.61162 | 39069 ft | 491 kts | 118° |
| 2026-05-06 21:03 | 23.21829 | -71.55050 | 39068 ft | 491 kts | 119° |
| 2026-05-06 21:04 | 23.17938 | -71.48956 | 39081 ft | 491 kts | 119° |
| 2026-05-06 21:04 | 23.14037 | -71.42860 | 39066 ft | 491 kts | 119° |
| 2026-05-06 21:05 | 23.10139 | -71.36776 | 39081 ft | 490 kts | 119° |
| 2026-05-06 21:05 | 23.06239 | -71.30694 | 39086 ft | 491 kts | 119° |
| 2026-05-06 21:06 | 23.02363 | -71.24655 | 39074 ft | 491 kts | 119° |
| 2026-05-06 21:06 | 22.98459 | -71.18579 | 39074 ft | 490 kts | 119° |
| 2026-05-06 21:07 | 22.94555 | -71.12511 | 39073 ft | 490 kts | 119° |
| 2026-05-06 21:07 | 22.90649 | -71.06448 | 39075 ft | 490 kts | 119° |
| 2026-05-06 21:08 | 22.86739 | -71.00384 | 39078 ft | 490 kts | 119° |
| 2026-05-06 21:08 | 22.82830 | -70.94329 | 39075 ft | 490 kts | 119° |
| 2026-05-06 21:09 | 22.78924 | -70.88287 | 39076 ft | 489 kts | 119° |
| 2026-05-06 21:09 | 22.75020 | -70.82254 | 39074 ft | 489 kts | 119° |
| 2026-05-06 21:10 | 22.71114 | -70.76226 | 39073 ft | 488 kts | 119° |
| 2026-05-06 21:10 | 22.67210 | -70.70206 | 39077 ft | 488 kts | 119° |
| 2026-05-06 21:11 | 22.63964 | -70.65207 | 39077 ft | 488 kts | 119° |
| 2026-05-06 21:11 | 22.60064 | -70.59206 | 39073 ft | 487 kts | 119° |
| 2026-05-06 21:12 | 22.56161 | -70.53209 | 39075 ft | 487 kts | 119° |
| 2026-05-06 21:12 | 22.52257 | -70.47215 | 39074 ft | 487 kts | 119° |
| 2026-05-06 21:13 | 22.47721 | -70.40261 | 39073 ft | 486 kts | 119° |
| 2026-05-06 21:13 | 22.44453 | -70.35256 | 39075 ft | 486 kts | 119° |
| 2026-05-06 21:14 | 22.40550 | -70.29285 | 39073 ft | 486 kts | 119° |
| 2026-05-06 21:14 | 22.36663 | -70.23345 | 39074 ft | 486 kts | 119° |
| 2026-05-06 21:15 | 22.32765 | -70.17395 | 39071 ft | 485 kts | 119° |
| 2026-05-06 21:15 | 22.28865 | -70.11449 | 39069 ft | 485 kts | 119° |
| 2026-05-06 21:16 | 22.24968 | -70.05513 | 39073 ft | 484 kts | 119° |
| 2026-05-06 21:16 | 22.21070 | -69.99583 | 39074 ft | 484 kts | 119° |
| 2026-05-06 21:17 | 22.17178 | -69.93668 | 39073 ft | 483 kts | 119° |
| 2026-05-06 21:17 | 22.13287 | -69.87762 | 39071 ft | 483 kts | 119° |
| 2026-05-06 21:18 | 22.09424 | -69.81904 | 39073 ft | 482 kts | 119° |
| 2026-05-06 21:18 | 22.05538 | -69.76018 | 39068 ft | 481 kts | 119° |
| 2026-05-06 21:19 | 22.01649 | -69.70134 | 39070 ft | 481 kts | 119° |
| 2026-05-06 21:19 | 21.97766 | -69.64266 | 39068 ft | 480 kts | 120° |
| 2026-05-06 21:20 | 21.93888 | -69.58411 | 39067 ft | 480 kts | 120° |
| 2026-05-06 21:20 | 21.90011 | -69.52563 | 39073 ft | 479 kts | 120° |
| 2026-05-06 21:21 | 21.86136 | -69.46726 | 39068 ft | 479 kts | 120° |
| 2026-05-06 21:21 | 21.82264 | -69.40898 | 39067 ft | 478 kts | 120° |
| 2026-05-06 21:22 | 21.78391 | -69.35076 | 39066 ft | 478 kts | 120° |
| 2026-05-06 21:22 | 21.74547 | -69.29303 | 39066 ft | 477 kts | 120° |
| 2026-05-06 21:23 | 21.70678 | -69.23500 | 39070 ft | 477 kts | 120° |
| 2026-05-06 21:23 | 21.66814 | -69.17709 | 39069 ft | 476 kts | 120° |
| 2026-05-06 21:24 | 21.62950 | -69.11925 | 39070 ft | 475 kts | 120° |
| 2026-05-06 21:24 | 21.59092 | -69.06155 | 39072 ft | 475 kts | 121° |
| 2026-05-06 21:25 | 21.55238 | -69.00399 | 39072 ft | 474 kts | 121° |
| 2026-05-06 21:25 | 21.51387 | -68.94652 | 39067 ft | 473 kts | 121° |
| 2026-05-06 21:26 | 21.47545 | -68.88925 | 39069 ft | 472 kts | 121° |
| 2026-05-06 21:26 | 21.43708 | -68.83211 | 39064 ft | 471 kts | 121° |
| 2026-05-06 21:27 | 21.39893 | -68.77536 | 39076 ft | 471 kts | 121° |
| 2026-05-06 21:27 | 21.36061 | -68.71840 | 39073 ft | 470 kts | 121° |
| 2026-05-06 21:28 | 21.32232 | -68.66156 | 39070 ft | 469 kts | 121° |
| 2026-05-06 21:28 | 21.28410 | -68.60488 | 39067 ft | 469 kts | 121° |
| 2026-05-06 21:29 | 21.24592 | -68.54830 | 39071 ft | 468 kts | 121° |
| 2026-05-06 21:29 | 21.20775 | -68.49180 | 39070 ft | 467 kts | 122° |
| 2026-05-06 21:30 | 21.16963 | -68.43544 | 39073 ft | 467 kts | 122° |
| 2026-05-06 21:30 | 21.13155 | -68.37919 | 39073 ft | 466 kts | 122° |
| 2026-05-06 21:31 | 21.09345 | -68.32296 | 39067 ft | 466 kts | 122° |
| 2026-05-06 21:31 | 21.05539 | -68.26685 | 39072 ft | 465 kts | 122° |
| 2026-05-06 21:32 | 21.01733 | -68.21079 | 39070 ft | 465 kts | 122° |
| 2026-05-06 21:32 | 20.96054 | -68.12725 | 39069 ft | 465 kts | 122° |
| 2026-05-06 21:33 | 20.92245 | -68.07128 | 39068 ft | 464 kts | 122° |
| 2026-05-06 21:33 | 20.88440 | -68.01541 | 39068 ft | 464 kts | 122° |
| 2026-05-06 21:34 | 20.84611 | -67.95981 | 39070 ft | 464 kts | 124° |
| 2026-05-06 21:34 | 20.80638 | -67.90535 | 39071 ft | 465 kts | 125° |
| 2026-05-06 21:35 | 20.76637 | -67.85109 | 39070 ft | 464 kts | 125° |
| 2026-05-06 21:35 | 20.72857 | -67.79545 | 39073 ft | 461 kts | 118° |
| 2026-05-06 21:36 | 20.69636 | -67.73630 | 39073 ft | 460 kts | 117° |
| 2026-05-06 21:36 | 20.66472 | -67.67697 | 39069 ft | 460 kts | 117° |
| 2026-05-06 21:37 | 20.63294 | -67.61828 | 39071 ft | 459 kts | 118° |
| 2026-05-06 21:37 | 20.60071 | -67.55943 | 39068 ft | 459 kts | 118° |
| 2026-05-06 21:38 | 20.56834 | -67.50058 | 39073 ft | 459 kts | 118° |
| 2026-05-06 21:38 | 20.53594 | -67.44177 | 39070 ft | 459 kts | 118° |
| 2026-05-06 21:39 | 20.50359 | -67.38308 | 39071 ft | 459 kts | 118° |
| 2026-05-06 21:39 | 20.47121 | -67.32438 | 39072 ft | 459 kts | 119° |
| 2026-05-06 21:40 | 20.43885 | -67.26578 | 39069 ft | 459 kts | 119° |
| 2026-05-06 21:40 | 20.40644 | -67.20714 | 39069 ft | 459 kts | 119° |
| 2026-05-06 21:41 | 20.37403 | -67.14857 | 39069 ft | 459 kts | 119° |
| 2026-05-06 21:41 | 20.34157 | -67.08995 | 39070 ft | 459 kts | 120° |
| 2026-05-06 21:42 | 20.30929 | -67.03174 | 39072 ft | 459 kts | 120° |
| 2026-05-06 21:42 | 20.27680 | -66.97319 | 39067 ft | 459 kts | 120° |
| 2026-05-06 21:43 | 20.24426 | -66.91461 | 39069 ft | 459 kts | 120° |
| 2026-05-06 21:43 | 20.21166 | -66.85600 | 39069 ft | 460 kts | 120° |
| 2026-05-06 21:44 | 20.19533 | -66.82666 | 38888 ft | 463 kts | 120° |
| 2026-05-06 21:44 | 20.17888 | -66.79712 | 38634 ft | 464 kts | 120° |
| 2026-05-06 21:44 | 20.16242 | -66.76757 | 38363 ft | 460 kts | 120° |
| 2026-05-06 21:44 | 20.14613 | -66.73835 | 38100 ft | 459 kts | 120° |
| 2026-05-06 21:45 | 20.12978 | -66.70903 | 37846 ft | 461 kts | 121° |
| 2026-05-06 21:45 | 20.11335 | -66.67959 | 37592 ft | 463 kts | 121° |
| 2026-05-06 21:45 | 20.09690 | -66.65011 | 37336 ft | 463 kts | 121° |
| 2026-05-06 21:45 | 20.08047 | -66.62070 | 37075 ft | 462 kts | 121° |
| 2026-05-06 21:46 | 20.06407 | -66.59135 | 36819 ft | 459 kts | 121° |
| 2026-05-06 21:46 | 20.04779 | -66.56223 | 36574 ft | 458 kts | 121° |
| 2026-05-06 21:46 | 20.03154 | -66.53317 | 36318 ft | 456 kts | 121° |
| 2026-05-06 21:46 | 20.01535 | -66.50426 | 36073 ft | 454 kts | 121° |
| 2026-05-06 21:47 | 19.99943 | -66.47583 | 35856 ft | 452 kts | 121° |
| 2026-05-06 21:47 | 19.98343 | -66.44725 | 35744 ft | 448 kts | 121° |
| 2026-05-06 21:47 | 19.95169 | -66.39063 | 35598 ft | 447 kts | 121° |
| 2026-05-06 21:48 | 19.91953 | -66.33333 | 35501 ft | 454 kts | 121° |
| 2026-05-06 21:48 | 19.88716 | -66.27570 | 35502 ft | 454 kts | 121° |
| 2026-05-06 21:49 | 19.85470 | -66.21798 | 35501 ft | 455 kts | 121° |
| 2026-05-06 21:49 | 19.82229 | -66.16038 | 35496 ft | 454 kts | 121° |
| 2026-05-06 21:50 | 19.80599 | -66.13145 | 35276 ft | 459 kts | 121° |
| 2026-05-06 21:50 | 19.78970 | -66.10254 | 35244 ft | 452 kts | 121° |
| 2026-05-06 21:50 | 19.75769 | -66.04577 | 35239 ft | 449 kts | 121° |
| 2026-05-06 21:51 | 19.72570 | -65.98911 | 35233 ft | 452 kts | 121° |
| 2026-05-06 21:51 | 19.70947 | -65.96036 | 35113 ft | 456 kts | 121° |
| 2026-05-06 21:51 | 19.69312 | -65.93144 | 35003 ft | 455 kts | 121° |
| 2026-05-06 21:52 | 19.67685 | -65.90266 | 34882 ft | 457 kts | 121° |
| 2026-05-06 21:52 | 19.66030 | -65.87341 | 34794 ft | 468 kts | 121° |
| 2026-05-06 21:52 | 19.64338 | -65.84353 | 34693 ft | 478 kts | 121° |
| 2026-05-06 21:52 | 19.62609 | -65.81300 | 34590 ft | 487 kts | 121° |
| 2026-05-06 21:53 | 19.60853 | -65.78202 | 34483 ft | 492 kts | 121° |
| 2026-05-06 21:53 | 19.59084 | -65.75080 | 34363 ft | 494 kts | 121° |
| 2026-05-06 21:53 | 19.57313 | -65.71957 | 34248 ft | 495 kts | 121° |
| 2026-05-06 21:53 | 19.55539 | -65.68829 | 34140 ft | 495 kts | 121° |
| 2026-05-06 21:54 | 19.52006 | -65.62607 | 34132 ft | 489 kts | 122° |
| 2026-05-06 21:54 | 19.48531 | -65.56492 | 34072 ft | 486 kts | 122° |
| 2026-05-06 21:55 | 19.46779 | -65.53413 | 33784 ft | 490 kts | 122° |
| 2026-05-06 21:55 | 19.45014 | -65.50312 | 33543 ft | 492 kts | 122° |
| 2026-05-06 21:55 | 19.43239 | -65.47197 | 33287 ft | 494 kts | 122° |
| 2026-05-06 21:55 | 19.41470 | -65.44091 | 33103 ft | 491 kts | 122° |
| 2026-05-06 21:56 | 19.37957 | -65.37929 | 33070 ft | 488 kts | 122° |
| 2026-05-06 21:56 | 19.34442 | -65.31772 | 33069 ft | 489 kts | 123° |
| 2026-05-06 21:57 | 19.30916 | -65.25602 | 33067 ft | 490 kts | 123° |
| 2026-05-06 21:57 | 19.27382 | -65.19423 | 33068 ft | 491 kts | 123° |
| 2026-05-06 21:58 | 19.23838 | -65.13233 | 33068 ft | 491 kts | 123° |
| 2026-05-06 21:58 | 19.20315 | -65.07087 | 33067 ft | 492 kts | 123° |
| 2026-05-06 21:59 | 19.16769 | -65.00905 | 33068 ft | 492 kts | 123° |
| 2026-05-06 21:59 | 19.13216 | -64.94719 | 33074 ft | 492 kts | 123° |
| 2026-05-06 22:00 | 19.10242 | -64.89545 | 33070 ft | 491 kts | 123° |
| 2026-05-06 22:00 | 19.06692 | -64.83375 | 33071 ft | 491 kts | 123° |
| 2026-05-06 22:01 | 19.03163 | -64.77247 | 33068 ft | 491 kts | 123° |
| 2026-05-06 22:01 | 18.99615 | -64.71092 | 33072 ft | 490 kts | 123° |
| 2026-05-06 22:02 | 18.96066 | -64.64943 | 33072 ft | 490 kts | 123° |
| 2026-05-06 22:02 | 18.94292 | -64.61871 | 32495 ft | 491 kts | 123° |
| 2026-05-06 22:02 | 18.92509 | -64.58786 | 31876 ft | 488 kts | 123° |
| 2026-05-06 22:03 | 18.90748 | -64.55739 | 31175 ft | 485 kts | 122° |
| 2026-05-06 22:03 | 18.89000 | -64.52716 | 30608 ft | 480 kts | 122° |
| 2026-05-06 22:03 | 18.87267 | -64.49722 | 29977 ft | 476 kts | 122° |
| 2026-05-06 22:03 | 18.85549 | -64.46753 | 29315 ft | 471 kts | 122° |
| 2026-05-06 22:04 | 18.83852 | -64.43822 | 28671 ft | 466 kts | 122° |
| 2026-05-06 22:04 | 18.82171 | -64.40922 | 28058 ft | 460 kts | 122° |
| 2026-05-06 22:04 | 18.80506 | -64.38050 | 27436 ft | 455 kts | 122° |
| 2026-05-06 22:04 | 18.78883 | -64.35253 | 26864 ft | 450 kts | 121° |
| 2026-05-06 22:05 | 18.77240 | -64.32422 | 26271 ft | 445 kts | 121° |
| 2026-05-06 22:05 | 18.75652 | -64.29686 | 25691 ft | 440 kts | 121° |
| 2026-05-06 22:05 | 18.74055 | -64.26937 | 25090 ft | 437 kts | 121° |
| 2026-05-06 22:05 | 18.72472 | -64.24213 | 24487 ft | 433 kts | 121° |
| 2026-05-06 22:06 | 18.70902 | -64.21512 | 23897 ft | 430 kts | 121° |
| 2026-05-06 22:06 | 18.69345 | -64.18836 | 23237 ft | 427 kts | 121° |
| 2026-05-06 22:06 | 18.67800 | -64.16180 | 22597 ft | 423 kts | 121° |
| 2026-05-06 22:06 | 18.66270 | -64.13551 | 21997 ft | 418 kts | 121° |
| 2026-05-06 22:07 | 18.64768 | -64.10971 | 21631 ft | 407 kts | 121° |
| 2026-05-06 22:07 | 18.63281 | -64.08419 | 20872 ft | 408 kts | 121° |
| 2026-05-06 22:07 | 18.61821 | -64.05913 | 20788 ft | 386 kts | 121° |
| 2026-05-06 22:07 | 18.60483 | -64.03621 | 21062 ft | 351 kts | 121° |
| 2026-05-06 22:08 | 18.59237 | -64.01486 | 20913 ft | 333 kts | 121° |
| 2026-05-06 22:08 | 18.58056 | -63.99462 | 20796 ft | 317 kts | 121° |
| 2026-05-06 22:08 | 18.56899 | -63.97476 | 20164 ft | 324 kts | 121° |
| 2026-05-06 22:08 | 18.55671 | -63.95371 | 19108 ft | 348 kts | 121° |
| 2026-05-06 22:09 | 18.54382 | -63.93160 | 18062 ft | 368 kts | 121° |
| 2026-05-06 22:09 | 18.53016 | -63.90819 | 17149 ft | 379 kts | 121° |
| 2026-05-06 22:09 | 18.51635 | -63.88457 | 16566 ft | 377 kts | 121° |
| 2026-05-06 22:09 | 18.50269 | -63.86122 | 16111 ft | 372 kts | 121° |
| 2026-05-06 22:10 | 18.48920 | -63.83815 | 15586 ft | 369 kts | 121° |
| 2026-05-06 22:10 | 18.47578 | -63.81521 | 15080 ft | 366 kts | 121° |
| 2026-05-06 22:10 | 18.46248 | -63.79248 | 14633 ft | 362 kts | 121° |
| 2026-05-06 22:10 | 18.44934 | -63.77002 | 14116 ft | 360 kts | 121° |
| 2026-05-06 22:11 | 18.43628 | -63.74772 | 13660 ft | 355 kts | 121° |
| 2026-05-06 22:11 | 18.42342 | -63.72576 | 13181 ft | 350 kts | 121° |
| 2026-05-06 22:11 | 18.41066 | -63.70398 | 12625 ft | 348 kts | 121° |
| 2026-05-06 22:11 | 18.39806 | -63.68249 | 12057 ft | 341 kts | 121° |
| 2026-05-06 22:12 | 18.38476 | -63.66205 | 11491 ft | 335 kts | 131° |
| 2026-05-06 22:12 | 18.36858 | -63.64515 | 11347 ft | 318 kts | 136° |
| 2026-05-06 22:12 | 18.35286 | -63.62977 | 11197 ft | 300 kts | 137° |
| 2026-05-06 22:12 | 18.33777 | -63.61513 | 11068 ft | 290 kts | 137° |
| 2026-05-06 22:13 | 18.32331 | -63.60106 | 10960 ft | 275 kts | 136° |
| 2026-05-06 22:13 | 18.30956 | -63.58759 | 10689 ft | 266 kts | 136° |
| 2026-05-06 22:13 | 18.29601 | -63.57425 | 10142 ft | 273 kts | 136° |
| 2026-05-06 22:13 | 18.28200 | -63.56041 | 9560 ft | 283 kts | 136° |
| 2026-05-06 22:14 | 18.26767 | -63.54623 | 9192 ft | 282 kts | 136° |
| 2026-05-06 22:14 | 18.25355 | -63.53224 | 8844 ft | 275 kts | 136° |
| 2026-05-06 22:14 | 18.23965 | -63.51845 | 8320 ft | 274 kts | 136° |
| 2026-05-06 22:14 | 18.22582 | -63.50473 | 7813 ft | 271 kts | 136° |
| 2026-05-06 22:15 | 18.21219 | -63.49120 | 7341 ft | 268 kts | 136° |
| 2026-05-06 22:15 | 18.19867 | -63.47777 | 6972 ft | 267 kts | 136° |
| 2026-05-06 22:15 | 18.18519 | -63.46439 | 6657 ft | 266 kts | 136° |
| 2026-05-06 22:15 | 18.17183 | -63.45113 | 6366 ft | 263 kts | 136° |
| 2026-05-06 22:16 | 18.15857 | -63.43797 | 6067 ft | 261 kts | 136° |
| 2026-05-06 22:16 | 18.14544 | -63.42495 | 5771 ft | 258 kts | 136° |
| 2026-05-06 22:16 | 18.13248 | -63.41208 | 5491 ft | 254 kts | 136° |
| 2026-05-06 22:16 | 18.11968 | -63.39938 | 5224 ft | 251 kts | 137° |
| 2026-05-06 22:17 | 18.10718 | -63.38699 | 4956 ft | 248 kts | 136° |
| 2026-05-06 22:17 | 18.09470 | -63.37461 | 4691 ft | 245 kts | 136° |
| 2026-05-06 22:17 | 18.08225 | -63.36228 | 4427 ft | 246 kts | 136° |
| 2026-05-06 22:17 | 18.06983 | -63.34996 | 4146 ft | 245 kts | 136° |
| 2026-05-06 22:18 | 18.05752 | -63.33776 | 3894 ft | 241 kts | 136° |
| 2026-05-06 22:18 | 18.04537 | -63.32573 | 3636 ft | 238 kts | 136° |
| 2026-05-06 22:18 | 18.03335 | -63.31383 | 3382 ft | 235 kts | 136° |
| 2026-05-06 22:18 | 18.02223 | -63.30178 | 3113 ft | 226 kts | 122° |
| 2026-05-06 22:19 | 18.01692 | -63.28680 | 2877 ft | 214 kts | 97° |
| 2026-05-06 22:19 | 18.01720 | -63.27147 | 2724 ft | 208 kts | 84° |
| 2026-05-06 22:19 | 18.01939 | -63.25631 | 2512 ft | 217 kts | 82° |
| 2026-05-06 22:19 | 18.02181 | -63.24056 | 2231 ft | 215 kts | 82° |
| 2026-05-06 22:20 | 18.02407 | -63.22558 | 1974 ft | 200 kts | 82° |
| 2026-05-06 22:20 | 18.02613 | -63.21167 | 1760 ft | 186 kts | 83° |
| 2026-05-06 22:20 | 18.02812 | -63.19815 | 1523 ft | 188 kts | 82° |
| 2026-05-06 22:20 | 18.03004 | -63.18487 | 1274 ft | 182 kts | 83° |
| 2026-05-06 22:21 | 18.03187 | -63.17219 | 1022 ft | 168 kts | 83° |
| 2026-05-06 22:21 | 18.03355 | -63.16052 | 818 ft | 155 kts | 83° |
| 2026-05-06 22:21 | 18.03503 | -63.15008 | 657 ft | 136 kts | 82° |
| 2026-05-06 22:21 | 18.03629 | -63.14050 | 473 ft | 132 kts | 86° |
| 2026-05-06 22:22 | 18.03758 | -63.13111 | 271 ft | 127 kts | 81° |
| 2026-05-06 22:22 | 18.03910 | -63.12208 | 110 ft | 124 kts | 83° |
| 2026-05-06 22:22 | 18.04026 | -63.11359 | 20 ft | 85 kts | 81° |
| 2026-05-06 22:22 | 18.04081 | -63.11022 | 21 ft | 18 kts | 56° |
| 2026-05-06 22:23 | 18.04161 | -63.11003 | 20 ft | 0 kts | 330° |
| 2026-05-06 22:23 | 18.04162 | -63.11004 | 20 ft | 1 kts | 326° |
| 2026-05-06 22:23 | 18.04168 | -63.11046 | 20 ft | 9 kts | 256° |
| 2026-05-06 22:23 | 18.04154 | -63.11130 | 21 ft | 13 kts | 262° |
| 2026-05-06 22:24 | 18.04140 | -63.11232 | 21 ft | 15 kts | 262° |
| 2026-05-06 22:24 | 18.04177 | -63.11302 | 20 ft | 12 kts | 351° |
| 2026-05-06 22:24 | 18.04256 | -63.11305 | 20 ft | 9 kts | 17° |
| 2026-05-06 22:24 | 18.04313 | -63.11288 | 20 ft | 9 kts | 345° |
| 2026-05-06 22:25 | 18.04336 | -63.11293 | 20 ft | 0 kts | 349° |
| 2026-05-06 22:25 | 18.04338 | -63.11293 | 20 ft | 0 kts | 350° |